createdAt,value
2018-04-27T00:00:57.137Z,8.83
2018-04-27T00:01:57.072Z,8.90
2018-04-27T00:02:57.008Z,8.86
2018-04-27T00:03:56.944Z,8.95
2018-04-27T00:04:56.879Z,8.88
2018-04-27T00:05:56.820Z,8.88
2018-04-27T00:06:56.751Z,8.90
2018-04-27T00:07:56.688Z,8.86
2018-04-27T00:08:56.624Z,8.86
2018-04-27T00:09:56.557Z,8.90
2018-04-27T00:10:56.495Z,8.95
2018-04-27T00:11:56.428Z,8.89
2018-04-27T00:12:56.367Z,8.86
2018-04-27T00:13:56.301Z,8.83
2018-04-27T00:14:56.236Z,8.80
2018-04-27T00:15:56.171Z,8.85
2018-04-27T00:16:56.108Z,8.74
2018-04-27T00:17:56.044Z,8.83
2018-04-27T00:18:55.977Z,8.75
2018-04-27T00:19:55.914Z,8.68
2018-04-27T00:20:55.849Z,8.72
2018-04-27T00:21:55.783Z,8.71
2018-04-27T00:22:55.717Z,8.70
2018-04-27T00:23:55.654Z,8.65
2018-04-27T00:24:55.594Z,8.67
2018-04-27T00:25:55.524Z,8.63
2018-04-27T00:26:55.469Z,8.62
2018-04-27T00:27:55.396Z,8.57
2018-04-27T00:28:55.331Z,8.55
2018-04-27T00:29:55.266Z,8.52
2018-04-27T00:30:55.205Z,8.47
2018-04-27T00:31:55.138Z,8.53
2018-04-27T00:32:55.071Z,8.47
2018-04-27T00:33:55.010Z,8.53
2018-04-27T00:34:54.945Z,8.56
2018-04-27T00:35:54.881Z,8.52
2018-04-27T00:36:54.819Z,8.52
2018-04-27T00:37:54.750Z,8.49
2018-04-27T00:38:54.685Z,8.50
2018-04-27T00:39:54.621Z,8.42
2018-04-27T00:40:54.558Z,8.44
2018-04-27T00:41:54.493Z,8.38
2018-04-27T00:42:54.428Z,8.44
2018-04-27T00:43:54.364Z,8.39
2018-04-27T00:44:54.298Z,8.34
2018-04-27T00:45:54.233Z,8.37
2018-04-27T00:46:54.170Z,8.37
2018-04-27T00:47:54.104Z,8.32
2018-04-27T00:48:54.045Z,8.31
2018-04-27T00:49:53.975Z,8.32
2018-04-27T00:50:53.913Z,8.34
2018-04-27T00:51:53.847Z,8.29
2018-04-27T00:52:53.780Z,8.32
2018-04-27T00:53:53.715Z,8.31
2018-04-27T00:54:53.653Z,8.24
2018-04-27T00:55:53.583Z,8.14
2018-04-27T00:56:53.523Z,8.17
2018-04-27T00:57:53.464Z,8.13
2018-04-27T00:58:53.395Z,8.09
2018-04-27T00:59:53.328Z,8.16
2018-04-27T01:00:53.264Z,8.14
2018-04-27T01:01:53.197Z,8.14
2018-04-27T01:02:53.135Z,8.21
2018-04-27T01:03:53.071Z,8.20
2018-04-27T01:04:53.005Z,8.06
2018-04-27T01:05:52.940Z,8.12
2018-04-27T01:06:52.880Z,7.96
2018-04-27T01:07:52.811Z,8.05
2018-04-27T01:08:52.747Z,7.95
2018-04-27T01:09:52.678Z,7.84
2018-04-27T01:10:52.616Z,7.84
2018-04-27T01:11:52.554Z,7.98
2018-04-27T01:12:52.485Z,7.98
2018-04-27T01:13:52.424Z,8.09
2018-04-27T01:14:52.358Z,8.14
2018-04-27T01:15:52.294Z,8.14
2018-04-27T01:16:52.230Z,8.12
2018-04-27T01:17:52.163Z,8.05
2018-04-27T01:18:52.098Z,8.02
2018-04-27T01:19:52.034Z,7.95
2018-04-27T01:20:51.967Z,8.01
2018-04-27T01:21:51.902Z,7.92
2018-04-27T01:22:51.838Z,7.83
2018-04-27T01:23:51.774Z,7.76
2018-04-27T01:24:51.710Z,7.78
2018-04-27T01:25:51.643Z,7.83
2018-04-27T01:26:51.581Z,7.77
2018-04-27T01:27:51.515Z,7.71
2018-04-27T01:28:51.451Z,7.80
2018-04-27T01:29:51.382Z,7.74
2018-04-27T01:30:51.317Z,7.76
2018-04-27T01:31:51.253Z,7.68
2018-04-27T01:32:51.187Z,7.71
2018-04-27T01:33:51.127Z,7.71
2018-04-27T01:34:51.058Z,7.68
2018-04-27T01:35:50.992Z,7.64
2018-04-27T01:36:50.935Z,7.74
2018-04-27T01:37:50.865Z,7.64
2018-04-27T01:38:50.797Z,7.66
2018-04-27T01:39:50.735Z,7.61
2018-04-27T01:40:50.667Z,7.64
2018-04-27T01:41:50.601Z,7.64
2018-04-27T01:42:50.539Z,7.58
2018-04-27T01:43:50.474Z,7.49
2018-04-27T01:44:50.409Z,7.49
2018-04-27T01:45:50.343Z,7.50
2018-04-27T01:46:50.281Z,7.47
2018-04-27T01:47:50.213Z,7.50
2018-04-27T01:48:50.148Z,7.42
2018-04-27T01:49:50.081Z,7.49
2018-04-27T01:50:50.019Z,7.49
2018-04-27T01:51:49.953Z,7.40
2018-04-27T01:52:49.888Z,7.47
2018-04-27T01:53:49.823Z,7.31
2018-04-27T01:54:49.757Z,7.29
2018-04-27T01:55:49.695Z,7.24
2018-04-27T01:56:49.626Z,7.26
2018-04-27T01:57:49.563Z,7.15
2018-04-27T01:58:49.503Z,7.24
2018-04-27T01:59:49.435Z,7.22
2018-04-27T02:00:49.370Z,7.16
2018-04-27T02:01:49.303Z,7.18
2018-04-27T02:02:49.235Z,7.16
2018-04-27T02:03:49.171Z,7.15
2018-04-27T02:04:49.106Z,7.19
2018-04-27T02:05:49.043Z,7.18
2018-04-27T02:06:48.977Z,7.21
2018-04-27T02:07:48.918Z,7.16
2018-04-27T02:08:48.844Z,7.21
2018-04-27T02:09:48.783Z,7.24
2018-04-27T02:10:48.715Z,7.16
2018-04-27T02:11:48.651Z,7.21
2018-04-27T02:12:48.585Z,7.22
2018-04-27T02:13:48.519Z,7.19
2018-04-27T02:14:48.456Z,7.18
2018-04-27T02:15:48.393Z,7.21
2018-04-27T02:16:48.322Z,7.16
2018-04-27T02:17:48.258Z,7.22
2018-04-27T02:18:48.193Z,7.11
2018-04-27T02:19:48.129Z,7.18
2018-04-27T02:20:48.064Z,7.18
2018-04-27T02:21:47.999Z,7.16
2018-04-27T02:22:47.933Z,7.10
2018-04-27T02:23:47.866Z,7.03
2018-04-27T02:24:47.800Z,7.04
2018-04-27T02:25:47.737Z,6.99
2018-04-27T02:26:47.671Z,6.92
2018-04-27T02:27:47.605Z,6.92
2018-04-27T02:28:47.541Z,6.85
2018-04-27T02:29:47.475Z,6.83
2018-04-27T02:30:47.421Z,6.79
2018-04-27T02:31:47.346Z,6.85
2018-04-27T02:32:47.278Z,6.91
2018-04-27T02:33:47.214Z,6.83
2018-04-27T02:34:47.152Z,6.97
2018-04-27T02:35:47.082Z,6.96
2018-04-27T02:36:47.018Z,6.99
2018-04-27T02:37:46.950Z,6.92
2018-04-27T02:38:46.884Z,7.01
2018-04-27T02:39:46.821Z,7.07
2018-04-27T02:40:46.753Z,7.03
2018-04-27T02:41:46.692Z,7.06
2018-04-27T02:42:46.623Z,7.07
2018-04-27T02:43:46.563Z,7.03
2018-04-27T02:44:46.492Z,6.93
2018-04-27T02:45:46.427Z,7.00
2018-04-27T02:46:46.361Z,7.08
2018-04-27T02:47:46.301Z,7.00
2018-04-27T02:48:46.232Z,7.00
2018-04-27T02:49:46.167Z,6.97
2018-04-27T02:50:46.100Z,6.97
2018-04-27T02:51:46.036Z,7.00
2018-04-27T02:52:45.970Z,6.97
2018-04-27T02:53:45.905Z,6.99
2018-04-27T02:54:45.839Z,6.97
2018-04-27T02:55:45.775Z,6.89
2018-04-27T02:56:45.709Z,6.99
2018-04-27T02:57:45.643Z,6.97
2018-04-27T02:58:45.577Z,6.91
2018-04-27T02:59:45.518Z,6.89
2018-04-27T03:00:45.446Z,6.86
2018-04-27T03:01:45.381Z,6.85
2018-04-27T03:02:45.317Z,6.85
2018-04-27T03:03:45.251Z,6.83
2018-04-27T03:04:45.186Z,6.83
2018-04-27T03:05:45.123Z,6.79
2018-04-27T03:06:45.056Z,6.83
2018-04-27T03:07:44.990Z,6.86
2018-04-27T03:08:44.925Z,6.89
2018-04-27T03:09:44.859Z,6.79
2018-04-27T03:10:44.793Z,6.85
2018-04-27T03:11:44.726Z,6.85
2018-04-27T03:12:44.662Z,6.85
2018-04-27T03:13:44.597Z,6.82
2018-04-27T03:14:44.530Z,6.74
2018-04-27T03:15:44.467Z,6.75
2018-04-27T03:16:44.399Z,6.75
2018-04-27T03:17:44.332Z,6.79
2018-04-27T03:18:44.268Z,6.78
2018-04-27T03:19:44.203Z,6.75
2018-04-27T03:20:44.142Z,6.75
2018-04-27T03:21:44.072Z,6.79
2018-04-27T03:22:44.006Z,6.74
2018-04-27T03:23:43.960Z,6.78
2018-04-27T03:24:43.877Z,6.74
2018-04-27T03:25:43.810Z,6.71
2018-04-27T03:26:43.745Z,6.73
2018-04-27T03:27:43.682Z,6.81
2018-04-27T03:28:43.615Z,6.78
2018-04-27T03:29:43.547Z,6.78
2018-04-27T03:30:43.482Z,6.79
2018-04-27T03:31:43.417Z,6.79
2018-04-27T03:32:43.351Z,6.85
2018-04-27T03:33:43.287Z,6.86
2018-04-27T03:34:43.222Z,6.86
2018-04-27T03:35:43.156Z,6.82
2018-04-27T03:36:43.095Z,6.85
2018-04-27T03:37:43.024Z,6.82
2018-04-27T03:38:42.959Z,6.83
2018-04-27T03:39:42.895Z,6.91
2018-04-27T03:40:42.825Z,6.86
2018-04-27T03:41:42.762Z,6.93
2018-04-27T03:42:42.702Z,6.91
2018-04-27T03:43:42.632Z,7.01
2018-04-27T03:44:42.566Z,6.92
2018-04-27T03:45:42.504Z,6.97
2018-04-27T03:46:42.435Z,6.99
2018-04-27T03:47:42.369Z,6.97
2018-04-27T03:48:42.305Z,6.82
2018-04-27T03:49:42.237Z,6.85
2018-04-27T03:50:42.176Z,6.82
2018-04-27T03:51:42.108Z,6.83
2018-04-27T03:52:42.042Z,6.83
2018-04-27T03:53:41.976Z,6.82
2018-04-27T03:54:41.910Z,6.86
2018-04-27T03:55:41.843Z,6.81
2018-04-27T03:56:41.778Z,6.89
2018-04-27T03:57:41.715Z,6.91
2018-04-27T03:58:41.649Z,6.88
2018-04-27T03:59:41.584Z,6.88
2018-04-27T04:00:41.528Z,6.89
2018-04-27T04:01:41.452Z,6.93
2018-04-27T04:02:41.387Z,6.92
2018-04-27T04:03:41.325Z,6.93
2018-04-27T04:04:41.255Z,6.99
2018-04-27T04:05:41.188Z,6.86
2018-04-27T04:06:41.130Z,6.85
2018-04-27T04:07:41.059Z,6.75
2018-04-27T04:08:40.992Z,6.83
2018-04-27T04:09:40.929Z,6.79
2018-04-27T04:10:40.862Z,6.71
2018-04-27T04:11:40.797Z,6.79
2018-04-27T04:12:40.730Z,6.73
2018-04-27T04:13:40.715Z,6.68
2018-04-27T04:14:40.601Z,6.64
2018-04-27T04:15:40.536Z,6.81
2018-04-27T04:16:40.469Z,6.74
2018-04-27T04:17:40.403Z,6.78
2018-04-27T04:18:40.337Z,6.71
2018-04-27T04:19:40.275Z,6.78
2018-04-27T04:20:40.205Z,6.60
2018-04-27T04:21:40.141Z,6.71
2018-04-27T04:22:40.075Z,6.63
2018-04-27T04:23:40.009Z,6.57
2018-04-27T04:24:39.943Z,6.63
2018-04-27T04:25:39.879Z,6.53
2018-04-27T04:26:39.819Z,6.57
2018-04-27T04:27:39.748Z,6.61
2018-04-27T04:28:39.681Z,6.65
2018-04-27T04:29:39.616Z,6.53
2018-04-27T04:30:39.551Z,6.56
2018-04-27T04:31:39.485Z,6.57
2018-04-27T04:32:39.416Z,6.60
2018-04-27T04:33:39.353Z,6.64
2018-04-27T04:34:39.288Z,6.63
2018-04-27T04:35:39.223Z,6.81
2018-04-27T04:36:39.158Z,6.79
2018-04-27T04:37:39.092Z,6.70
2018-04-27T04:38:39.026Z,6.81
2018-04-27T04:39:38.959Z,6.79
2018-04-27T04:40:38.895Z,6.79
2018-04-27T04:41:38.829Z,6.78
2018-04-27T04:42:38.764Z,6.82
2018-04-27T04:43:38.698Z,6.89
2018-04-27T04:44:38.631Z,6.89
2018-04-27T04:45:38.568Z,6.88
2018-04-27T04:46:38.503Z,6.93
2018-04-27T04:47:38.436Z,6.92
2018-04-27T04:48:38.368Z,6.97
2018-04-27T04:49:38.303Z,7.06
2018-04-27T04:50:38.240Z,7.07
2018-04-27T04:51:38.174Z,7.06
2018-04-27T04:52:38.189Z,7.01
2018-04-27T04:53:38.043Z,7.19
2018-04-27T04:54:37.976Z,7.15
2018-04-27T04:55:37.911Z,7.18
2018-04-27T04:56:37.848Z,7.33
2018-04-27T04:57:37.780Z,7.33
2018-04-27T04:58:37.714Z,7.37
2018-04-27T04:59:37.650Z,7.42
2018-04-27T05:00:37.584Z,7.43
2018-04-27T05:01:37.521Z,7.46
2018-04-27T05:02:37.456Z,7.52
2018-04-27T05:03:37.387Z,7.49
2018-04-27T05:04:37.321Z,7.62
2018-04-27T05:05:37.258Z,7.62
2018-04-27T05:06:37.192Z,7.71
2018-04-27T05:07:37.127Z,7.69
2018-04-27T05:08:37.060Z,7.76
2018-04-27T05:09:36.998Z,7.81
2018-04-27T05:10:37.014Z,7.92
2018-04-27T05:11:36.864Z,7.91
2018-04-27T05:12:36.798Z,7.87
2018-04-27T05:13:36.733Z,8.04
2018-04-27T05:14:36.668Z,8.02
2018-04-27T05:15:36.604Z,8.01
2018-04-27T05:16:36.538Z,8.04
2018-04-27T05:17:36.473Z,7.99
2018-04-27T05:18:36.406Z,8.10
2018-04-27T05:19:36.342Z,8.09
2018-04-27T05:20:36.276Z,8.12
2018-04-27T05:21:36.213Z,8.13
2018-04-27T05:22:36.149Z,8.19
2018-04-27T05:23:36.082Z,8.20
2018-04-27T05:24:36.015Z,8.24
2018-04-27T05:25:35.953Z,8.28
2018-04-27T05:26:35.885Z,8.32
2018-04-27T05:27:35.821Z,8.42
2018-04-27T05:28:35.756Z,8.44
2018-04-27T05:29:35.690Z,8.55
2018-04-27T05:30:35.625Z,8.60
2018-04-27T05:31:35.560Z,8.59
2018-04-27T05:32:35.496Z,8.65
2018-04-27T05:33:35.428Z,8.83
2018-04-27T05:34:35.364Z,8.88
2018-04-27T05:35:35.300Z,8.88
2018-04-27T05:36:35.241Z,8.98
2018-04-27T05:37:35.169Z,9.11
2018-04-27T05:38:35.105Z,9.12
2018-04-27T05:39:35.043Z,9.12
2018-04-27T05:40:35.018Z,9.23
2018-04-27T05:41:34.908Z,9.26
2018-04-27T05:42:34.844Z,9.32
2018-04-27T05:43:34.787Z,9.40
2018-04-27T05:44:34.716Z,9.36
2018-04-27T05:45:34.654Z,9.40
2018-04-27T05:46:34.582Z,9.42
2018-04-27T05:47:34.519Z,9.47
2018-04-27T05:48:34.460Z,9.57
2018-04-27T05:49:34.391Z,9.66
2018-04-27T05:50:34.325Z,9.77
2018-04-27T05:51:34.264Z,9.84
2018-04-27T05:52:34.196Z,9.87
2018-04-27T05:53:34.134Z,9.98
2018-04-27T05:54:34.069Z,10.08
2018-04-27T05:55:34.020Z,10.02
2018-04-27T05:56:33.933Z,10.10
2018-04-27T05:57:33.876Z,10.03
2018-04-27T05:58:33.810Z,10.09
2018-04-27T05:59:33.749Z,10.14
2018-04-27T06:00:33.679Z,10.10
2018-04-27T06:01:33.616Z,10.14
2018-04-27T06:02:33.550Z,10.23
2018-04-27T06:03:33.487Z,10.23
2018-04-27T06:04:33.434Z,10.26
2018-04-27T06:05:33.358Z,10.27
2018-04-27T06:06:33.293Z,10.36
2018-04-27T06:07:33.230Z,10.31
2018-04-27T06:08:33.165Z,10.43
2018-04-27T06:09:33.099Z,10.39
2018-04-27T06:10:33.038Z,10.46
2018-04-27T06:11:32.972Z,10.57
2018-04-27T06:12:32.908Z,10.57
2018-04-27T06:13:32.843Z,10.61
2018-04-27T06:14:32.779Z,10.55
2018-04-27T06:15:32.717Z,10.55
2018-04-27T06:16:32.651Z,10.64
2018-04-27T06:17:32.588Z,10.62
2018-04-27T06:18:32.521Z,10.60
2018-04-27T06:19:32.458Z,10.48
2018-04-27T06:20:32.388Z,10.67
2018-04-27T06:21:32.328Z,10.60
2018-04-27T06:22:32.266Z,10.72
2018-04-27T06:23:32.199Z,10.75
2018-04-27T06:24:32.135Z,10.82
2018-04-27T06:25:32.071Z,10.86
2018-04-27T06:26:32.008Z,10.86
2018-04-27T06:27:31.944Z,10.95
2018-04-27T06:28:31.879Z,11.01
2018-04-27T06:29:31.834Z,10.98
2018-04-27T06:30:31.751Z,11.03
2018-04-27T06:31:31.690Z,11.09
2018-04-27T06:32:31.624Z,11.00
2018-04-27T06:33:31.559Z,11.09
2018-04-27T06:34:31.492Z,11.09
2018-04-27T06:35:31.430Z,11.18
2018-04-27T06:36:31.366Z,11.18
2018-04-27T06:37:31.301Z,11.20
2018-04-27T06:38:31.244Z,11.28
2018-04-27T06:39:31.222Z,11.34
2018-04-27T06:40:31.118Z,11.41
2018-04-27T06:41:31.045Z,11.46
2018-04-27T06:42:30.983Z,11.56
2018-04-27T06:43:30.917Z,11.70
2018-04-27T06:44:30.855Z,11.67
2018-04-27T06:45:30.789Z,11.61
2018-04-27T06:46:30.729Z,11.66
2018-04-27T06:47:30.662Z,11.77
2018-04-27T06:48:30.598Z,11.76
2018-04-27T06:49:30.537Z,11.79
2018-04-27T06:50:30.475Z,11.85
2018-04-27T06:51:30.410Z,11.82
2018-04-27T06:52:30.347Z,11.89
2018-04-27T06:53:30.278Z,11.88
2018-04-27T06:54:30.215Z,12.00
2018-04-27T06:55:30.153Z,12.07
2018-04-27T06:56:30.087Z,11.97
2018-04-27T06:57:30.025Z,11.99
2018-04-27T06:58:29.960Z,12.13
2018-04-27T06:59:29.901Z,11.97
2018-04-27T07:00:29.831Z,12.17
2018-04-27T07:01:29.773Z,12.18
2018-04-27T07:02:29.706Z,12.25
2018-04-27T07:03:29.644Z,12.22
2018-04-27T07:04:29.578Z,12.32
2018-04-27T07:05:29.516Z,12.38
2018-04-27T07:06:29.450Z,12.47
2018-04-27T07:07:29.387Z,12.44
2018-04-27T07:08:29.326Z,12.48
2018-04-27T07:09:29.260Z,12.50
2018-04-27T07:10:29.201Z,12.62
2018-04-27T07:11:29.143Z,12.69
2018-04-27T07:12:29.070Z,12.73
2018-04-27T07:13:29.005Z,12.79
2018-04-27T07:14:28.943Z,12.86
2018-04-27T07:15:28.884Z,12.95
2018-04-27T07:16:28.816Z,12.93
2018-04-27T07:17:28.754Z,13.02
2018-04-27T07:18:28.689Z,13.02
2018-04-27T07:19:28.628Z,13.13
2018-04-27T07:20:28.567Z,13.08
2018-04-27T07:21:28.501Z,13.08
2018-04-27T07:22:28.439Z,13.05
2018-04-27T07:23:28.389Z,13.01
2018-04-27T07:24:28.318Z,12.96
2018-04-27T07:25:28.268Z,12.91
2018-04-27T07:26:28.186Z,12.95
2018-04-27T07:27:28.121Z,13.09
2018-04-27T07:28:28.056Z,13.02
2018-04-27T07:29:27.994Z,13.05
2018-04-27T07:30:27.933Z,13.11
2018-04-27T07:31:27.869Z,13.17
2018-04-27T07:32:27.815Z,13.24
2018-04-27T07:33:27.754Z,13.39
2018-04-27T07:34:27.682Z,13.57
2018-04-27T07:35:27.635Z,13.61
2018-04-27T07:36:27.553Z,13.72
2018-04-27T07:37:27.498Z,13.67
2018-04-27T07:38:27.428Z,13.75
2018-04-27T07:39:27.376Z,13.80
2018-04-27T07:40:27.300Z,13.86
2018-04-27T07:41:27.239Z,13.88
2018-04-27T07:42:27.227Z,13.90
2018-04-27T07:43:27.112Z,13.88
2018-04-27T07:44:27.049Z,13.91
2018-04-27T07:45:26.988Z,13.88
2018-04-27T07:46:26.925Z,13.86
2018-04-27T07:47:26.862Z,13.83
2018-04-27T07:48:26.798Z,13.86
2018-04-27T07:49:26.738Z,14.01
2018-04-27T07:50:26.672Z,14.03
2018-04-27T07:51:26.617Z,14.01
2018-04-27T07:52:26.547Z,14.01
2018-04-27T07:53:26.484Z,14.08
2018-04-27T07:54:26.426Z,14.13
2018-04-27T07:55:26.393Z,14.26
2018-04-27T07:56:26.295Z,14.33
2018-04-27T07:57:26.234Z,14.38
2018-04-27T07:58:26.172Z,14.58
2018-04-27T07:59:26.135Z,14.58
2018-04-27T08:00:26.047Z,14.61
2018-04-27T08:01:25.985Z,14.61
2018-04-27T08:02:25.945Z,14.61
2018-04-27T08:03:25.862Z,14.59
2018-04-27T08:04:25.795Z,14.61
2018-04-27T08:05:25.733Z,14.66
2018-04-27T08:06:25.671Z,14.74
2018-04-27T08:07:25.611Z,14.66
2018-04-27T08:08:25.550Z,14.77
2018-04-27T08:09:25.488Z,14.59
2018-04-27T08:10:25.424Z,14.71
2018-04-27T08:11:25.461Z,14.74
2018-04-27T08:12:25.299Z,14.73
2018-04-27T08:13:25.238Z,14.92
2018-04-27T08:14:25.175Z,14.95
2018-04-27T08:15:25.114Z,15.04
2018-04-27T08:16:25.051Z,15.14
2018-04-27T08:17:24.990Z,15.11
2018-04-27T08:18:24.926Z,15.10
2018-04-27T08:19:24.863Z,14.93
2018-04-27T08:20:24.806Z,14.89
2018-04-27T08:21:24.741Z,14.79
2018-04-27T08:22:24.680Z,14.70
2018-04-27T08:23:24.619Z,14.58
2018-04-27T08:24:24.554Z,14.58
2018-04-27T08:25:24.493Z,14.71
2018-04-27T08:26:24.431Z,14.73
2018-04-27T08:27:24.369Z,14.67
2018-04-27T08:28:24.314Z,14.70
2018-04-27T08:29:24.245Z,14.99
2018-04-27T08:30:24.184Z,15.14
2018-04-27T08:31:24.132Z,15.32
2018-04-27T08:32:24.056Z,15.38
2018-04-27T08:33:23.997Z,15.52
2018-04-27T08:34:23.936Z,15.47
2018-04-27T08:35:23.873Z,15.51
2018-04-27T08:36:23.812Z,15.56
2018-04-27T08:37:23.751Z,15.70
2018-04-27T08:38:23.687Z,15.80
2018-04-27T08:39:23.625Z,15.85
2018-04-27T08:40:23.566Z,15.73
2018-04-27T08:41:23.504Z,15.60
2018-04-27T08:42:23.446Z,15.56
2018-04-27T08:43:23.388Z,15.40
2018-04-27T08:44:23.319Z,15.43
2018-04-27T08:45:23.257Z,15.54
2018-04-27T08:46:23.197Z,15.56
2018-04-27T08:47:23.135Z,15.60
2018-04-27T08:48:23.075Z,15.70
2018-04-27T08:49:23.011Z,15.73
2018-04-27T08:50:22.990Z,15.69
2018-04-27T08:51:22.889Z,15.72
2018-04-27T08:52:22.827Z,15.77
2018-04-27T08:53:22.765Z,15.73
2018-04-27T08:54:22.704Z,15.70
2018-04-27T08:55:22.645Z,15.73
2018-04-27T08:56:22.581Z,15.66
2018-04-27T08:57:22.520Z,15.78
2018-04-27T08:58:22.469Z,15.78
2018-04-27T08:59:22.398Z,15.81
2018-04-27T09:00:22.337Z,15.99
2018-04-27T09:01:22.276Z,16.14
2018-04-27T09:02:22.214Z,16.10
2018-04-27T09:03:22.153Z,16.21
2018-04-27T09:04:22.091Z,16.17
2018-04-27T09:05:22.031Z,16.02
2018-04-27T09:06:22.008Z,15.98
2018-04-27T09:07:21.912Z,16.05
2018-04-27T09:08:21.847Z,15.96
2018-04-27T09:09:21.788Z,16.09
2018-04-27T09:10:21.727Z,16.05
2018-04-27T09:11:21.667Z,16.02
2018-04-27T09:12:21.605Z,16.16
2018-04-27T09:13:21.556Z,16.25
2018-04-27T09:14:21.484Z,16.57
2018-04-27T09:15:21.427Z,16.62
2018-04-27T09:16:21.368Z,16.64
2018-04-27T09:17:21.298Z,16.69
2018-04-27T09:18:21.238Z,16.80
2018-04-27T09:19:21.179Z,16.67
2018-04-27T09:20:21.118Z,16.84
2018-04-27T09:21:21.058Z,16.88
2018-04-27T09:22:20.997Z,16.95
2018-04-27T09:23:20.934Z,16.98
2018-04-27T09:24:20.874Z,16.99
2018-04-27T09:25:20.817Z,17.07
2018-04-27T09:26:20.763Z,17.14
2018-04-27T09:27:20.691Z,17.39
2018-04-27T09:28:20.631Z,17.54
2018-04-27T09:29:20.569Z,17.87
2018-04-27T09:30:20.512Z,17.93
2018-04-27T09:31:20.450Z,18.05
2018-04-27T09:32:20.464Z,18.13
2018-04-27T09:33:20.329Z,18.09
2018-04-27T09:34:20.267Z,17.86
2018-04-27T09:35:20.207Z,17.86
2018-04-27T09:36:20.147Z,18.03
2018-04-27T09:37:20.091Z,18.26
2018-04-27T09:38:20.030Z,18.30
2018-04-27T09:39:19.966Z,18.18
2018-04-27T09:40:19.908Z,18.09
2018-04-27T09:41:19.848Z,18.05
2018-04-27T09:42:19.789Z,17.78
2018-04-27T09:43:19.727Z,17.76
2018-04-27T09:44:19.666Z,17.91
2018-04-27T09:45:19.606Z,17.91
2018-04-27T09:46:19.545Z,17.94
2018-04-27T09:47:19.955Z,18.15
2018-04-27T09:48:19.427Z,18.30
2018-04-27T09:49:19.365Z,18.33
2018-04-27T09:50:19.305Z,18.67
2018-04-27T09:51:19.246Z,18.81
2018-04-27T09:52:19.189Z,18.85
2018-04-27T09:53:19.139Z,18.97
2018-04-27T09:54:19.070Z,19.00
2018-04-27T09:55:19.008Z,19.19
2018-04-27T09:56:18.959Z,19.27
2018-04-27T09:57:18.887Z,19.30
2018-04-27T09:58:18.829Z,19.37
2018-04-27T09:59:18.769Z,19.62
2018-04-27T10:00:18.741Z,20.09
2018-04-27T10:01:18.648Z,20.64
2018-04-27T10:02:18.594Z,21.58
2018-04-27T10:03:18.536Z,22.22
2018-04-27T10:04:18.474Z,22.80
2018-04-27T10:05:18.416Z,23.01
2018-04-27T10:06:18.359Z,23.06
2018-04-27T10:07:18.300Z,22.98
2018-04-27T10:08:18.242Z,23.28
2018-04-27T10:09:18.186Z,23.49
2018-04-27T10:10:18.130Z,23.45
2018-04-27T10:11:18.073Z,23.34
2018-04-27T10:12:18.021Z,23.06
2018-04-27T10:13:17.960Z,23.23
2018-04-27T10:14:17.905Z,23.11
2018-04-27T10:15:17.848Z,23.10
2018-04-27T10:16:17.793Z,23.17
2018-04-27T10:17:17.738Z,23.04
2018-04-27T10:18:17.684Z,23.45
2018-04-27T10:19:17.628Z,23.11
2018-04-27T10:20:17.571Z,23.46
2018-04-27T10:21:17.520Z,23.69
2018-04-27T10:22:17.463Z,23.74
2018-04-27T10:23:17.409Z,24.04
2018-04-27T10:24:17.352Z,23.85
2018-04-27T10:25:17.294Z,23.91
2018-04-27T10:26:17.242Z,23.39
2018-04-27T10:27:17.187Z,23.34
2018-04-27T10:28:17.132Z,22.99
2018-04-27T10:29:17.078Z,22.49
2018-04-27T10:30:17.026Z,22.15
2018-04-27T10:31:16.969Z,22.48
2018-04-27T10:32:16.915Z,22.77
2018-04-27T10:33:16.862Z,22.64
2018-04-27T10:34:16.804Z,22.66
2018-04-27T10:35:16.749Z,23.03
2018-04-27T10:36:16.698Z,23.01
2018-04-27T10:37:16.645Z,22.56
2018-04-27T10:38:16.587Z,22.25
2018-04-27T10:39:16.533Z,22.56
2018-04-27T10:40:16.477Z,22.67
2018-04-27T10:41:16.423Z,22.18
2018-04-27T10:42:16.367Z,22.11
2018-04-27T10:43:16.314Z,21.85
2018-04-27T10:44:16.255Z,21.75
2018-04-27T10:45:16.201Z,22.01
2018-04-27T10:46:16.147Z,22.13
2018-04-27T10:47:16.164Z,22.34
2018-04-27T10:48:16.041Z,22.31
2018-04-27T10:49:15.982Z,22.74
2018-04-27T10:50:15.984Z,23.03
2018-04-27T10:51:15.870Z,23.31
2018-04-27T10:52:15.831Z,22.86
2018-04-27T10:53:15.763Z,22.30
2018-04-27T10:54:15.706Z,22.16
2018-04-27T10:55:15.652Z,22.01
2018-04-27T10:56:15.594Z,21.97
2018-04-27T10:57:15.540Z,21.90
2018-04-27T10:58:15.487Z,21.94
2018-04-27T10:59:15.433Z,21.77
2018-04-27T11:00:15.375Z,21.59
2018-04-27T11:01:15.320Z,21.51
2018-04-27T11:02:15.265Z,21.93
2018-04-27T11:03:15.212Z,22.11
2018-04-27T11:04:15.156Z,21.88
2018-04-27T11:05:15.099Z,22.25
2018-04-27T11:06:15.043Z,22.23
2018-04-27T11:07:14.989Z,22.30
2018-04-27T11:08:14.931Z,21.73
2018-04-27T11:09:14.875Z,21.62
2018-04-27T11:10:14.821Z,21.58
2018-04-27T11:11:14.772Z,21.43
2018-04-27T11:12:14.711Z,21.28
2018-04-27T11:13:14.655Z,20.74
2018-04-27T11:14:14.599Z,20.50
2018-04-27T11:15:14.544Z,20.39
2018-04-27T11:16:14.503Z,20.32
2018-04-27T11:17:14.431Z,20.15
2018-04-27T11:18:14.376Z,19.87
2018-04-27T11:19:14.318Z,19.75
2018-04-27T11:20:14.265Z,19.64
2018-04-27T11:21:14.206Z,19.68
2018-04-27T11:22:14.148Z,19.52
2018-04-27T11:23:14.092Z,19.59
2018-04-27T11:24:14.033Z,19.50
2018-04-27T11:25:13.977Z,19.41
2018-04-27T11:26:13.921Z,19.42
2018-04-27T11:27:13.866Z,19.19
2018-04-27T11:28:13.805Z,19.07
2018-04-27T11:29:13.759Z,19.05
2018-04-27T11:30:13.693Z,19.08
2018-04-27T11:31:13.635Z,19.05
2018-04-27T11:32:13.577Z,18.98
2018-04-27T11:33:13.519Z,18.97
2018-04-27T11:34:13.461Z,19.04
2018-04-27T11:35:13.483Z,18.94
2018-04-27T11:36:13.346Z,19.05
2018-04-27T11:37:13.288Z,19.07
2018-04-27T11:38:13.229Z,19.07
2018-04-27T11:39:13.173Z,19.00
2018-04-27T11:40:13.114Z,19.05
2018-04-27T11:41:13.066Z,18.98
2018-04-27T11:42:12.998Z,19.04
2018-04-27T11:43:12.943Z,19.05
2018-04-27T11:44:12.877Z,19.13
2018-04-27T11:45:12.822Z,19.07
2018-04-27T11:46:12.761Z,19.01
2018-04-27T11:47:12.705Z,18.97
2018-04-27T11:48:12.642Z,18.86
2018-04-27T11:49:12.589Z,18.93
2018-04-27T11:50:12.527Z,18.82
2018-04-27T11:51:12.471Z,18.91
2018-04-27T11:52:12.415Z,18.86
2018-04-27T11:53:12.372Z,18.85
2018-04-27T11:54:12.295Z,18.86
2018-04-27T11:55:12.238Z,19.01
2018-04-27T11:56:12.178Z,19.16
2018-04-27T11:57:12.119Z,19.23
2018-04-27T11:58:12.059Z,19.38
2018-04-27T11:59:12.002Z,19.42
2018-04-27T12:00:11.943Z,19.42
2018-04-27T12:01:11.884Z,19.44
2018-04-27T12:02:11.823Z,19.44
2018-04-27T12:03:11.767Z,19.37
2018-04-27T12:04:11.708Z,19.30
2018-04-27T12:05:11.648Z,19.22
2018-04-27T12:06:11.591Z,18.97
2018-04-27T12:07:11.531Z,18.91
2018-04-27T12:08:11.470Z,18.86
2018-04-27T12:09:11.415Z,19.04
2018-04-27T12:10:11.352Z,19.05
2018-04-27T12:11:11.295Z,19.20
2018-04-27T12:12:11.236Z,19.16
2018-04-27T12:13:11.176Z,19.19
2018-04-27T12:14:11.119Z,19.22
2018-04-27T12:15:11.071Z,19.38
2018-04-27T12:16:11.003Z,19.42
2018-04-27T12:17:10.942Z,19.57
2018-04-27T12:18:10.882Z,19.59
2018-04-27T12:19:10.822Z,19.60
2018-04-27T12:20:10.763Z,19.67
2018-04-27T12:21:10.706Z,19.67
2018-04-27T12:22:10.646Z,19.68
2018-04-27T12:23:10.587Z,19.75
2018-04-27T12:24:10.527Z,19.78
2018-04-27T12:25:10.473Z,19.82
2018-04-27T12:26:10.409Z,19.82
2018-04-27T12:27:10.351Z,19.71
2018-04-27T12:28:10.293Z,19.89
2018-04-27T12:29:10.233Z,19.82
2018-04-27T12:30:10.175Z,19.84
2018-04-27T12:31:10.119Z,19.81
2018-04-27T12:32:10.058Z,19.74
2018-04-27T12:33:09.996Z,19.75
2018-04-27T12:34:09.941Z,19.60
2018-04-27T12:35:09.879Z,19.74
2018-04-27T12:36:09.821Z,19.75
2018-04-27T12:37:09.761Z,19.75
2018-04-27T12:38:09.705Z,19.74
2018-04-27T12:39:09.646Z,19.71
2018-04-27T12:40:09.586Z,19.75
2018-04-27T12:41:09.527Z,19.75
2018-04-27T12:42:09.469Z,19.90
2018-04-27T12:43:09.414Z,19.96
2018-04-27T12:44:09.350Z,19.99
2018-04-27T12:45:09.302Z,19.89
2018-04-27T12:46:09.237Z,19.84
2018-04-27T12:47:09.175Z,19.60
2018-04-27T12:48:09.116Z,19.71
2018-04-27T12:49:09.051Z,19.67
2018-04-27T12:50:08.998Z,19.68
2018-04-27T12:51:08.940Z,19.62
2018-04-27T12:52:08.969Z,19.75
2018-04-27T12:53:08.829Z,19.70
2018-04-27T12:54:08.765Z,19.86
2018-04-27T12:55:08.707Z,19.84
2018-04-27T12:56:08.647Z,19.87
2018-04-27T12:57:08.590Z,20.05
2018-04-27T12:58:08.530Z,20.05
2018-04-27T12:59:08.472Z,20.15
2018-04-27T13:00:08.412Z,20.15
2018-04-27T13:01:08.354Z,20.09
2018-04-27T13:02:08.295Z,20.12
2018-04-27T13:03:08.239Z,20.15
2018-04-27T13:04:08.179Z,20.18